Time;durP1;ratioP1;P1;durP2;ratioP2;P2;SDS_P1;SDS_P2;PMS_P1;PMS_P2;Temp;Humidity;BMP_temperature;BMP_pressure;BME280_temperature;BME280_humidity;BME280_pressure;Samples;Min_cycle;Max_cycle;Signal;HPM_P1;HPM_P2
2021/01/25 00:02:12;;;;;;;20.92;10.65;;;;;;;10.38;51.50;91968.34;4972461;28;20338;-76
2021/01/25 00:04:39;;;;;;;22.38;14.45;;;;;;;10.37;51.19;91961.50;4969515;28;20043;-76
2021/01/25 00:07:04;;;;;;;19.40;9.85;;;;;;;10.30;51.28;91934.91;4962560;28;20675;-76
2021/01/25 00:09:31;;;;;;;18.50;10.85;;;;;;;10.22;51.71;91964.81;4967411;28;20035;-76
2021/01/25 00:11:56;;;;;;;14.13;9.60;;;;;;;10.31;51.90;91947.75;4966762;28;20470;-76
2021/01/25 00:14:22;;;;;;;17.55;9.60;;;;;;;10.33;51.77;91939.50;4972774;28;20129;-76
2021/01/25 00:16:47;;;;;;;12.55;7.45;;;;;;;10.32;51.39;91948.53;4968959;28;20041;-76
2021/01/25 00:19:12;;;;;;;14.90;8.82;;;;;;;10.22;52.04;91927.84;4973058;28;20042;-76
2021/01/25 00:21:38;;;;;;;21.83;11.43;;;;;;;10.30;51.98;91934.91;4968829;28;20077;-77
2021/01/25 00:24:04;;;;;;;114.68;42.92;;;;;;;10.28;52.32;91906.19;4969242;28;20038;-76
2021/01/25 00:26:29;;;;;;;15.15;9.48;;;;;;;10.33;51.84;91928.94;4972978;28;20479;-76
2021/01/25 00:28:54;;;;;;;12.90;8.52;;;;;;;10.33;51.50;91910.47;4976288;28;20053;-76
2021/01/25 00:31:20;;;;;;;14.63;10.65;;;;;;;10.38;52.46;91883.84;4975558;28;20064;-79
2021/01/25 00:33:45;;;;;;;14.43;8.95;;;;;;;10.33;51.46;91915.75;4973431;28;20585;-78
2021/01/25 00:36:11;;;;;;;14.18;8.40;;;;;;;10.34;51.81;91919.94;4980210;28;20566;-75
2021/01/25 00:38:36;;;;;;;15.73;8.30;;;;;;;10.37;51.48;91949.06;4973403;28;20109;-78
2021/01/25 00:41:02;;;;;;;10.57;8.15;;;;;;;10.39;51.66;91948.75;4977795;28;20511;-78
2021/01/25 00:43:27;;;;;;;14.98;9.32;;;;;;;10.37;51.56;91925.31;4970209;28;20043;-78
2021/01/25 00:45:53;;;;;;;19.73;10.40;;;;;;;10.31;51.60;91947.00;4975556;28;20117;-78
2021/01/25 00:48:18;;;;;;;17.92;8.35;;;;;;;10.28;51.94;91947.66;4973987;28;20421;-78
2021/01/25 00:50:44;;;;;;;15.63;8.77;;;;;;;10.36;51.90;91947.53;4977668;28;20026;-78
2021/01/25 00:53:09;;;;;;;17.17;10.15;;;;;;;10.39;51.86;91938.97;4977006;28;20033;-78
2021/01/25 00:55:34;;;;;;;12.55;8.55;;;;;;;10.39;51.62;91932.91;4971704;28;20043;-77
2021/01/25 00:58:01;;;;;;;14.85;8.65;;;;;;;10.42;51.72;91950.72;4972486;28;20038;-78
2021/01/25 01:00:28;;;;;;;10.93;8.20;;;;;;;10.42;51.53;91942.81;4989238;28;20540;-78
2021/01/25 01:02:53;;;;;;;12.23;7.95;;;;;;;10.45;51.77;91930.81;4974307;28;20030;-78
2021/01/25 01:05:18;;;;;;;12.70;8.23;;;;;;;10.40;52.06;91927.31;4970568;28;20071;-78
2021/01/25 01:07:44;;;;;;;14.98;7.85;;;;;;;10.53;51.60;91928.06;4975561;28;20030;-78
2021/01/25 01:10:10;;;;;;;53.90;23.40;;;;;;;10.53;52.28;91908.78;4968957;28;20042;-78
2021/01/25 01:12:35;;;;;;;14.43;8.88;;;;;;;10.57;51.84;91913.06;4976414;28;20057;-78
2021/01/25 01:15:01;;;;;;;11.05;7.30;;;;;;;10.63;51.71;91916.25;4970504;28;20069;-77
2021/01/25 01:17:26;;;;;;;12.43;7.68;;;;;;;10.60;51.94;91904.50;4978606;28;20692;-78
2021/01/25 01:19:52;;;;;;;10.02;6.72;;;;;;;10.64;51.86;91926.50;4969102;28;20050;-78
2021/01/25 01:22:17;;;;;;;10.70;5.88;;;;;;;10.57;51.68;91923.63;4974033;28;20034;-78
2021/01/25 01:24:42;;;;;;;12.07;8.18;;;;;;;10.52;51.65;91936.28;4973896;28;20785;-77
2021/01/25 01:27:08;;;;;;;9.57;7.28;;;;;;;10.59;51.83;91937.28;4974817;28;20121;-77
2021/01/25 01:29:33;;;;;;;10.70;6.00;;;;;;;10.58;51.85;91917.25;4990070;28;20026;-77
2021/01/25 01:31:59;;;;;;;11.50;6.43;;;;;;;10.57;51.87;91934.19;4970953;28;20066;-77
2021/01/25 01:34:24;;;;;;;9.60;6.43;;;;;;;10.53;52.27;91906.94;4971060;28;20092;-78
2021/01/25 01:36:50;;;;;;;10.73;7.72;;;;;;;10.55;52.58;91928.50;4970172;28;20486;-78
2021/01/25 01:39:15;;;;;;;12.23;6.35;;;;;;;10.54;52.05;91910.34;4972196;28;20046;-78
2021/01/25 01:41:41;;;;;;;7.40;5.18;;;;;;;10.56;51.90;91903.59;4982249;28;20033;-77
2021/01/25 01:44:07;;;;;;;8.20;5.03;;;;;;;10.40;52.33;91914.09;4971227;28;20471;-78
2021/01/25 01:46:34;;;;;;;9.45;5.25;;;;;;;10.47;52.62;91897.69;4965026;28;20045;-77
2021/01/25 01:49:01;;;;;;;10.52;5.95;;;;;;;10.38;52.54;91895.19;4975665;28;20046;-78
2021/01/25 01:51:27;;;;;;;9.43;5.50;;;;;;;10.31;52.55;91904.78;4968729;28;20050;-78
2021/01/25 01:53:53;;;;;;;8.68;5.35;;;;;;;10.44;52.63;91919.50;4972517;28;20034;-78
2021/01/25 01:56:19;;;;;;;6.57;5.60;;;;;;;10.47;52.58;91900.31;4975136;28;20035;-78
2021/01/25 01:58:45;;;;;;;9.23;6.10;;;;;;;10.50;52.76;91897.03;4976029;28;20494;-78
2021/01/25 02:01:11;;;;;;;7.85;5.18;;;;;;;10.40;52.67;91903.53;4971692;28;20034;-78
2021/01/25 02:03:37;;;;;;;7.82;5.47;;;;;;;10.43;52.80;91915.31;4971590;28;20561;-77
2021/01/25 02:06:04;;;;;;;9.02;6.10;;;;;;;10.42;52.99;91890.00;4973433;28;20070;-76
2021/01/25 02:08:30;;;;;;;9.35;7.65;;;;;;;10.45;52.76;91909.69;4974512;28;20030;-76
2021/01/25 02:10:57;;;;;;;7.70;5.85;;;;;;;10.54;52.78;91923.53;4975100;28;20586;-76
2021/01/25 02:13:23;;;;;;;9.25;5.88;;;;;;;10.55;52.83;91931.13;4972719;28;20495;-76
2021/01/25 02:15:49;;;;;;;7.53;5.28;;;;;;;10.47;53.03;91868.63;4987694;28;20515;-76
2021/01/25 02:18:15;;;;;;;4.95;3.63;;;;;;;10.59;55.01;91897.66;4971608;28;20483;-77
2021/01/25 02:20:42;;;;;;;11.60;5.43;;;;;;;10.71;53.92;91881.00;4974043;28;20085;-76
2021/01/25 02:23:28;;;;;;;8.70;5.40;;;;;;;10.77;53.95;91880.44;4976714;28;20168;-76
2021/01/25 02:26:15;;;;;;;11.38;7.50;;;;;;;10.93;54.53;91899.00;4977539;28;20081;-77
2021/01/25 02:28:41;;;;;;;4.13;2.35;;;;;;;10.82;55.59;91887.38;4973201;28;20121;-76
2021/01/25 02:31:09;;;;;;;11.13;5.55;;;;;;;10.95;56.34;91890.72;4975679;28;20240;-76
2021/01/25 02:33:42;;;;;;;8.70;5.50;;;;;;;11.01;55.76;91887.50;4972643;28;20676;-76
2021/01/25 02:36:08;;;;;;;6.75;3.92;;;;;;;10.91;57.26;91879.28;4975704;28;20050;-77
2021/01/25 02:38:35;;;;;;;2.30;2.10;;;;;;;11.07;58.81;91893.31;4969979;28;20052;-76
2021/01/25 02:41:02;;;;;;;6.70;4.47;;;;;;;11.04;58.27;91894.78;4976431;28;20052;-77
2021/01/25 02:43:28;;;;;;;8.48;5.60;;;;;;;11.13;57.66;91902.56;4967479;28;20542;-76
2021/01/25 02:45:55;;;;;;;8.82;4.97;;;;;;;11.27;57.48;91898.41;4975073;28;20033;-76
2021/01/25 02:48:21;;;;;;;6.93;3.22;;;;;;;11.33;58.46;91900.81;4972419;28;20030;-77
2021/01/25 02:50:50;;;;;;;4.72;2.42;;;;;;;11.34;58.11;91884.59;4990381;28;20088;-77
2021/01/25 02:53:16;;;;;;;2.13;1.88;;;;;;;11.38;59.30;91876.78;4975314;28;20510;-77
2021/01/25 02:55:41;;;;;;;1.95;1.83;;;;;;;11.40;58.53;91907.03;4970045;28;20059;-76
2021/01/25 02:58:07;;;;;;;0.70;0.70;;;;;;;11.40;58.67;91890.41;4971906;28;20887;-77
2021/01/25 03:00:33;;;;;;;0.80;0.70;;;;;;;11.54;57.73;91907.41;4973028;28;20053;-76
2021/01/25 03:03:00;;;;;;;1.30;0.80;;;;;;;11.68;58.81;91905.13;4971475;28;20391;-76
2021/01/25 03:05:28;;;;;;;3.15;0.80;;;;;;;11.78;58.50;91900.47;4969907;28;20026;-77
2021/01/25 03:07:55;;;;;;;1.20;1.20;;;;;;;11.97;60.58;91906.59;4977304;28;20030;-77
2021/01/25 03:10:20;;;;;;;2.10;1.90;;;;;;;12.00;61.43;91899.88;4968392;28;20030;-77
2021/01/25 03:12:46;;;;;;;2.63;1.25;;;;;;;12.01;62.17;91919.94;4973701;28;20039;-77
2021/01/25 03:15:13;;;;;;;4.30;2.60;;;;;;;11.96;62.63;91893.72;4963027;28;20077;-76
2021/01/25 03:17:39;;;;;;;0.90;0.90;;;;;;;11.73;59.08;91904.88;4970168;28;20022;-77
2021/01/25 03:20:05;;;;;;;1.10;1.00;;;;;;;11.89;60.52;91910.19;4971648;28;20562;-76
2021/01/25 03:22:31;;;;;;;2.50;1.10;;;;;;;11.96;60.00;91901.66;4970618;28;20046;-77
2021/01/25 03:24:56;;;;;;;4.75;2.00;;;;;;;12.02;60.60;91905.59;4971661;28;20400;-76
2021/01/25 03:27:22;;;;;;;1.73;1.30;;;;;;;12.03;61.09;91915.06;4969617;28;20077;-77
2021/01/25 03:29:47;;;;;;;1.10;1.08;;;;;;;11.87;62.48;91935.47;4973441;28;20041;-75
2021/01/25 03:32:12;;;;;;;1.65;0.80;;;;;;;11.64;58.91;91896.31;4972956;28;20054;-76
2021/01/25 03:34:38;;;;;;;1.35;0.70;;;;;;;11.81;59.10;91897.91;4971911;28;20045;-76
2021/01/25 03:37:04;;;;;;;1.88;0.70;;;;;;;11.79;58.12;91878.19;4967867;28;20047;-77
2021/01/25 03:39:29;;;;;;;0.65;0.65;;;;;;;11.69;57.39;91877.56;4975091;28;20057;-76
2021/01/25 03:41:54;;;;;;;0.80;0.80;;;;;;;11.62;57.46;91889.84;4969850;28;20399;-77
2021/01/25 03:44:20;;;;;;;0.60;0.60;;;;;;;11.47;57.12;91864.91;4976083;28;20038;-75
2021/01/25 03:46:46;;;;;;;0.60;0.60;;;;;;;11.53;56.35;91850.31;4970141;28;20547;-76
2021/01/25 03:49:13;;;;;;;4.05;0.90;;;;;;;11.48;56.49;91844.53;4975378;28;20132;-76
2021/01/25 03:51:39;;;;;;;3.28;0.70;;;;;;;11.41;55.93;91828.47;4971935;28;20046;-77
2021/01/25 03:54:06;;;;;;;3.83;0.90;;;;;;;11.39;57.75;91865.84;4971111;28;20046;-80
2021/01/25 03:56:32;;;;;;;1.38;0.82;;;;;;;11.31;57.76;91832.41;4971118;28;20045;-76
2021/01/25 03:58:57;;;;;;;0.70;0.70;;;;;;;11.31;57.92;91872.06;4971185;28;20496;-76
2021/01/25 04:01:23;;;;;;;3.50;0.70;;;;;;;11.36;57.13;91863.88;4973038;28;20521;-76
2021/01/25 04:03:48;;;;;;;0.85;0.60;;;;;;;11.21;58.04;91864.63;4977103;28;20042;-76
2021/01/25 04:06:14;;;;;;;0.60;0.60;;;;;;;11.34;58.44;91871.38;4979629;28;20187;-75
2021/01/25 04:08:39;;;;;;;0.60;0.60;;;;;;;11.20;59.62;91844.56;4975939;28;21417;-75
2021/01/25 04:11:05;;;;;;;0.73;0.60;;;;;;;11.28;58.51;91862.16;4983220;28;20029;-75
2021/01/25 04:13:30;;;;;;;1.05;0.50;;;;;;;11.34;58.36;91862.69;4989948;28;20044;-76
2021/01/25 04:15:55;;;;;;;0.60;0.60;;;;;;;11.37;57.68;91862.78;4980852;28;20133;-75
2021/01/25 04:18:21;;;;;;;0.50;0.50;;;;;;;11.37;57.83;91870.72;4977792;28;20039;-76
2021/01/25 04:20:46;;;;;;;0.63;0.60;;;;;;;11.33;57.64;91855.88;4977942;28;20020;-80
2021/01/25 04:23:12;;;;;;;0.50;0.50;;;;;;;11.27;57.48;91850.06;4977176;28;20030;-74
2021/01/25 04:25:38;;;;;;;1.00;0.50;;;;;;;11.34;58.01;91818.50;4978970;28;20102;-77
2021/01/25 04:28:03;;;;;;;1.50;0.70;;;;;;;11.20;56.31;91799.63;4974133;28;20527;-75
2021/01/25 04:30:29;;;;;;;0.50;0.50;;;;;;;11.33;56.77;91789.75;4978540;28;20377;-75
2021/01/25 04:32:54;;;;;;;0.50;0.50;;;;;;;11.13;56.50;91783.63;4979718;28;20053;-78
2021/01/25 04:35:20;;;;;;;1.38;0.50;;;;;;;11.22;56.06;91784.97;4981479;28;20113;-76
2021/01/25 04:37:45;;;;;;;0.50;0.50;;;;;;;11.34;56.35;91784.13;4980248;28;20125;-75
2021/01/25 04:40:12;;;;;;;0.73;0.57;;;;;;;11.41;54.48;91797.53;4976730;28;20475;-76
2021/01/25 04:42:38;;;;;;;0.50;0.50;;;;;;;11.48;54.52;91781.84;4978161;28;20034;-75
2021/01/25 04:45:09;;;;;;;0.50;0.50;;;;;;;11.43;53.58;91808.53;4990068;28;20047;-76
2021/01/25 04:47:41;;;;;;;1.95;0.40;;;;;;;11.48;54.38;91792.41;4976035;28;20031;-79
2021/01/25 04:50:07;;;;;;;0.95;0.50;;;;;;;11.41;54.62;91804.69;4971434;28;20050;-76
2021/01/25 04:52:33;;;;;;;0.50;0.50;;;;;;;11.38;54.36;91790.28;4972980;28;20050;-78
2021/01/25 04:54:58;;;;;;;0.50;0.50;;;;;;;11.38;54.44;91824.66;4975523;28;20049;-76
2021/01/25 04:57:25;;;;;;;0.50;0.50;;;;;;;11.47;54.47;91833.19;4979846;28;20626;-77
2021/01/25 04:59:53;;;;;;;2.67;0.52;;;;;;;11.39;54.15;91836.75;4974735;28;20027;-77
2021/01/25 05:02:20;;;;;;;1.17;0.57;;;;;;;11.48;53.65;91863.06;4982338;28;20102;-77
2021/01/25 05:04:46;;;;;;;0.50;0.50;;;;;;;11.57;53.53;91845.91;4977296;28;20050;-77
2021/01/25 05:07:12;;;;;;;0.50;0.50;;;;;;;11.61;53.50;91880.38;4977927;28;20073;-75
2021/01/25 05:09:38;;;;;;;0.50;0.50;;;;;;;11.67;53.60;91879.78;4981831;28;20511;-78
2021/01/25 05:12:04;;;;;;;0.40;0.40;;;;;;;11.66;53.64;91888.81;4975544;28;20042;-75
2021/01/25 05:14:42;;;;;;;0.45;0.45;;;;;;;11.59;53.73;91874.63;4974806;28;20130;-75
2021/01/25 05:17:13;;;;;;;0.50;0.50;;;;;;;11.64;54.47;91854.00;4967597;28;20546;-76
2021/01/25 05:19:42;;;;;;;0.80;0.50;;;;;;;11.66;53.20;91867.66;4967867;28;20522;-75
2021/01/25 05:22:15;;;;;;;0.50;0.50;;;;;;;11.80;52.14;91872.56;4967533;28;20565;-77
2021/01/25 05:24:49;;;;;;;0.50;0.50;;;;;;;11.87;51.38;91882.56;4971453;28;20042;-76
2021/01/25 05:27:24;;;;;;;0.50;0.50;;;;;;;11.95;51.69;91911.47;4972189;28;20050;-79
2021/01/25 05:29:50;;;;;;;0.50;0.50;;;;;;;11.99;51.48;91930.09;4971217;28;20056;-77
2021/01/25 05:32:18;;;;;;;0.50;0.50;;;;;;;12.01;52.29;91931.28;4972783;28;20050;-77
2021/01/25 05:34:47;;;;;;;0.50;0.50;;;;;;;12.03;52.28;91938.88;4969968;28;20043;-77
2021/01/25 05:37:14;;;;;;;0.40;0.40;;;;;;;11.95;52.16;91939.81;4967782;28;20047;-77
2021/01/25 05:39:44;;;;;;;0.40;0.40;;;;;;;11.98;52.53;91941.78;4973839;28;20431;-75
2021/01/25 05:42:09;;;;;;;0.70;0.50;;;;;;;11.92;53.00;91932.56;4984647;28;20046;-76
2021/01/25 05:44:35;;;;;;;0.40;0.40;;;;;;;11.91;53.20;91954.84;4976701;28;20380;-77
2021/01/25 05:47:09;;;;;;;0.50;0.50;;;;;;;11.94;53.55;91943.56;4970344;28;21045;-77
2021/01/25 05:49:35;;;;;;;0.50;0.50;;;;;;;11.87;53.81;91941.53;4976487;28;20037;-76
2021/01/25 05:52:01;;;;;;;0.50;0.50;;;;;;;11.86;53.80;91958.53;4969212;28;20524;-75
2021/01/25 05:54:27;;;;;;;0.50;0.50;;;;;;;11.72;54.05;91960.78;4975823;28;20043;-76
2021/01/25 05:56:53;;;;;;;0.50;0.50;;;;;;;11.85;54.75;91972.09;4972059;28;20506;-76
2021/01/25 05:59:19;;;;;;;1.00;0.60;;;;;;;11.81;54.08;91961.41;4971180;28;20018;-76
2021/01/25 06:01:49;;;;;;;0.50;0.50;;;;;;;11.86;54.52;91970.97;4972633;28;20048;-76
2021/01/25 06:04:18;;;;;;;0.50;0.50;;;;;;;11.65;55.00;91966.66;4969413;28;20563;-78
2021/01/25 06:06:58;;;;;;;0.70;0.70;;;;;;;11.56;56.35;91967.91;4975120;28;20491;-78
2021/01/25 06:09:32;;;;;;;1.02;0.50;;;;;;;11.65;56.03;91961.38;4974807;28;20043;-77
2021/01/25 06:12:05;;;;;;;1.48;0.60;;;;;;;11.58;55.76;91986.88;4974319;28;20536;-76
2021/01/25 06:14:48;;;;;;;0.60;0.60;;;;;;;11.49;56.08;91957.91;4974266;28;20018;-76
2021/01/25 06:17:15;;;;;;;0.50;0.50;;;;;;;11.60;55.98;91966.91;4972942;28;20034;-76
2021/01/25 06:19:41;;;;;;;0.60;0.60;;;;;;;11.49;56.14;91967.72;4969742;28;20043;-77
2021/01/25 06:22:09;;;;;;;0.60;0.60;;;;;;;11.55;56.74;91967.13;4968173;28;20039;-77
2021/01/25 06:24:35;;;;;;;0.57;0.57;;;;;;;11.52;57.78;91975.00;4967367;28;20495;-78
2021/01/25 06:27:02;;;;;;;0.60;0.60;;;;;;;11.65;56.83;91990.47;4971539;28;20141;-76
2021/01/25 06:29:30;;;;;;;0.70;0.70;;;;;;;11.62;55.91;91988.50;4971282;28;20031;-79
2021/01/25 06:31:57;;;;;;;0.60;0.60;;;;;;;11.73;56.53;91997.50;4990659;28;20455;-76
2021/01/25 06:34:26;;;;;;;1.40;0.60;;;;;;;11.81;56.19;91995.03;4969080;28;20505;-76
2021/01/25 06:36:52;;;;;;;0.60;0.60;;;;;;;11.74;55.63;92011.50;4973024;28;20053;-76
2021/01/25 06:39:25;;;;;;;2.05;0.70;;;;;;;11.65;54.99;91994.97;4972961;28;20042;-77
2021/01/25 06:42:03;;;;;;;0.60;0.60;;;;;;;11.77;55.00;92015.38;4972873;28;20384;-76
2021/01/25 06:44:30;;;;;;;0.60;0.60;;;;;;;11.81;54.79;92005.63;4963702;28;20066;-76
2021/01/25 06:46:57;;;;;;;0.95;0.80;;;;;;;11.80;55.59;92012.03;4971805;28;20034;-76
2021/01/25 06:49:24;;;;;;;0.77;0.77;;;;;;;11.96;55.11;92026.06;4971171;28;20034;-77
2021/01/25 06:51:52;;;;;;;0.82;0.82;;;;;;;11.99;54.40;92039.38;4965544;28;20031;-77
2021/01/25 06:54:21;;;;;;;0.80;0.80;;;;;;;11.87;54.56;92036.03;4963741;28;20117;-77
2021/01/25 06:56:58;;;;;;;0.93;0.93;;;;;;;11.86;54.25;92034.50;4964416;28;20043;-75
2021/01/25 06:59:25;;;;;;;1.02;0.80;;;;;;;11.91;53.67;92042.19;4957330;28;20035;-76
2021/01/25 07:01:52;;;;;;;0.80;0.80;;;;;;;12.02;54.01;92028.09;4961010;28;20030;-76
2021/01/25 07:04:20;;;;;;;0.88;0.88;;;;;;;12.14;54.16;92035.22;4960554;28;20049;-77
2021/01/25 07:06:51;;;;;;;2.38;1.35;;;;;;;12.16;53.91;92048.91;4963848;28;20039;-76
2021/01/25 07:09:47;;;;;;;3.60;1.60;;;;;;;12.13;53.37;92025.72;4961526;28;20042;-76
2021/01/25 07:12:14;;;;;;;4.55;1.92;;;;;;;12.07;53.69;92045.66;4947524;28;20051;-77
2021/01/25 07:14:40;;;;;;;4.25;2.28;;;;;;;12.23;53.08;92027.88;4962460;28;20431;-78
2021/01/25 07:17:05;;;;;;;6.10;2.60;;;;;;;12.28;52.82;92062.06;4961929;28;20165;-77
2021/01/25 07:19:31;;;;;;;0.90;0.85;;;;;;;12.32;54.32;92068.22;4962801;28;21026;-79
2021/01/25 07:21:56;;;;;;;8.52;4.90;;;;;;;12.36;54.67;92087.63;4964469;28;20504;-77
2021/01/25 07:24:25;;;;;;;1.42;1.25;;;;;;;12.19;55.61;92082.63;4963967;28;20047;-78
2021/01/25 07:26:54;;;;;;;0.70;0.70;;;;;;;12.08;56.46;92086.88;4962529;28;20081;-76
2021/01/25 07:29:21;;;;;;;1.13;0.93;;;;;;;11.92;57.50;92101.97;4969371;28;20077;-77
2021/01/25 07:31:46;;;;;;;3.28;1.10;;;;;;;11.83;58.57;92117.97;4963191;28;20169;-79
2021/01/25 07:34:12;;;;;;;1.60;1.02;;;;;;;11.78;59.42;92122.75;4964520;28;20586;-79
2021/01/25 07:36:38;;;;;;;0.85;0.70;;;;;;;11.73;57.96;92083.28;4963352;28;20046;-77
2021/01/25 07:39:05;;;;;;;1.65;0.95;;;;;;;11.65;59.92;92091.00;4978613;28;20023;-79
2021/01/25 07:41:31;;;;;;;1.65;1.30;;;;;;;11.56;59.22;92110.75;4928380;28;20046;-78
2021/01/25 07:43:57;;;;;;;1.27;0.93;;;;;;;11.73;61.04;92121.84;4959269;28;20046;-78
2021/01/25 07:46:23;;;;;;;4.45;1.05;;;;;;;11.63;59.85;92118.91;4961313;28;20460;-78
2021/01/25 07:48:53;;;;;;;1.42;1.33;;;;;;;11.45;59.08;92109.66;4962008;28;20031;-79
2021/01/25 07:51:23;;;;;;;1.65;1.13;;;;;;;11.47;57.84;92121.47;4963808;28;20035;-79
2021/01/25 07:53:49;;;;;;;0.98;0.85;;;;;;;11.56;58.88;92148.56;4964680;28;20581;-77
2021/01/25 07:56:17;;;;;;;2.00;1.10;;;;;;;11.68;57.75;92161.75;4962138;28;20066;-77
2021/01/25 07:58:43;;;;;;;0.88;0.88;;;;;;;11.72;56.33;92188.34;4962646;28;20046;-79
2021/01/25 08:01:27;;;;;;;0.75;0.75;;;;;;;11.76;55.15;92196.41;4962972;28;20097;-77
2021/01/25 08:04:05;;;;;;;2.17;1.02;;;;;;;11.89;54.64;92250.84;4963765;28;20039;-79
2021/01/25 08:06:35;;;;;;;2.00;1.42;;;;;;;11.67;53.32;92268.72;4976961;28;20779;-77
2021/01/25 08:09:10;;;;;;;2.35;1.30;;;;;;;11.16;51.99;92293.91;4965843;28;20041;-77
2021/01/25 08:11:36;;;;;;;;;;;;;;;10.62;52.14;92305.63;4914080;28;20149;-77
2021/01/25 08:14:32;;;;;;;1.15;1.05;;;;;;;10.09;51.66;92314.25;4958815;28;19949;-77
2021/01/25 08:17:02;;;;;;;;;;;;;;;9.50;52.47;92340.63;4963512;28;20113;-77
2021/01/25 08:19:45;;;;;;;1.92;1.40;;;;;;;8.90;54.03;92348.69;4961784;28;19922;-77
2021/01/25 08:22:17;;;;;;;2.65;1.90;;;;;;;8.62;54.71;92374.59;4963462;28;20154;-79
2021/01/25 08:24:42;;;;;;;8.45;4.95;;;;;;;8.45;55.41;92380.66;4929640;28;20104;-80
2021/01/25 08:27:20;;;;;;;4.10;3.00;;;;;;;8.06;56.10;92409.66;4957810;28;20602;-79
2021/01/25 08:29:49;;;;;;;2.47;1.23;;;;;;;7.74;56.42;92444.97;4958596;28;20039;-79
2021/01/25 08:32:24;;;;;;;4.40;2.45;;;;;;;7.40;57.54;92454.25;4964588;28;20415;-80
2021/01/25 08:34:58;;;;;;;1.65;1.48;;;;;;;7.30;58.16;92446.63;4960640;28;20034;-80
2021/01/25 08:37:27;;;;;;;1.85;1.60;;;;;;;7.23;58.91;92438.38;4966499;28;20023;-80
2021/01/25 08:39:53;;;;;;;2.60;1.77;;;;;;;7.24;59.41;92439.94;4960366;28;20059;-78
2021/01/25 08:42:36;;;;;;;1.05;1.02;;;;;;;7.22;59.84;92449.97;4966714;28;20407;-80
2021/01/25 08:45:05;;;;;;;1.73;1.30;;;;;;;7.15;60.09;92444.34;4960424;28;20407;-79
2021/01/25 08:47:32;;;;;;;1.50;1.40;;;;;;;7.21;59.96;92458.16;4967583;28;20450;-80
2021/01/25 08:49:58;;;;;;;1.30;1.20;;;;;;;7.16;60.28;92456.44;4963520;28;20030;-79
2021/01/25 08:52:32;;;;;;;0.90;0.90;;;;;;;7.15;60.17;92446.19;4969970;28;20030;-80
2021/01/25 08:55:26;;;;;;;1.88;0.93;;;;;;;7.26;59.20;92440.41;4966213;28;20103;-78
2021/01/25 08:57:53;;;;;;;1.23;1.13;;;;;;;7.17;58.51;92442.22;4968897;28;20030;-80
2021/01/25 09:00:27;;;;;;;3.72;1.17;;;;;;;7.26;58.49;92434.38;4963031;28;20105;-78
2021/01/25 09:02:59;;;;;;;2.20;1.08;;;;;;;7.47;59.59;92432.03;4967667;28;20046;-79
2021/01/25 09:05:24;;;;;;;1.42;1.20;;;;;;;7.73;59.29;92433.69;4964556;28;20046;-79
2021/01/25 09:07:51;;;;;;;1.50;1.40;;;;;;;8.12;58.96;92446.03;4957395;28;20065;-78
2021/01/25 09:10:17;;;;;;;1.73;1.33;;;;;;;8.53;58.40;92439.66;4965735;28;20022;-79
2021/01/25 09:12:43;;;;;;;2.05;1.60;;;;;;;8.91;56.65;92445.84;4966962;28;20042;-79
2021/01/25 09:15:10;;;;;;;3.67;1.60;;;;;;;9.13;54.83;92458.09;4950937;28;20403;-78
2021/01/25 09:17:36;;;;;;;2.50;1.30;;;;;;;9.41;54.43;92458.53;4963198;28;20038;-79
2021/01/25 09:20:04;;;;;;;1.83;1.40;;;;;;;9.65;52.00;92458.78;4967219;28;20038;-78
2021/01/25 09:22:30;;;;;;;2.42;2.05;;;;;;;9.92;52.62;92468.94;4964054;28;20038;-79
2021/01/25 09:24:56;;;;;;;2.70;1.48;;;;;;;10.15;51.63;92466.06;4966843;28;20043;-78
2021/01/25 09:27:22;;;;;;;1.30;1.10;;;;;;;10.33;50.22;92475.47;4961726;28;20096;-79
2021/01/25 09:29:47;;;;;;;1.02;0.93;;;;;;;10.42;50.06;92478.84;4965240;28;20036;-78
2021/01/25 09:32:13;;;;;;;2.03;1.00;;;;;;;10.54;50.36;92473.66;4959781;28;20508;-78
2021/01/25 09:34:38;;;;;;;1.50;1.08;;;;;;;10.65;48.31;92482.72;4964860;28;20038;-78
2021/01/25 09:37:07;;;;;;;1.85;1.33;;;;;;;10.84;47.56;92477.03;4963923;28;20043;-78
2021/01/25 09:39:33;;;;;;;1.02;0.95;;;;;;;10.92;47.23;92486.78;4966446;28;20987;-80
2021/01/25 09:41:58;;;;;;;2.15;1.05;;;;;;;11.02;46.68;92491.69;4963666;28;20439;-80
2021/01/25 09:44:24;;;;;;;1.10;0.90;;;;;;;11.10;46.09;92476.84;4966402;28;20051;-79
2021/01/25 09:46:51;;;;;;;1.10;1.00;;;;;;;11.15;46.37;92476.63;4965424;28;20037;-78
2021/01/25 09:49:16;;;;;;;1.33;1.10;;;;;;;11.13;45.72;92481.50;4969399;28;20440;-80
2021/01/25 09:51:42;;;;;;;1.00;0.90;;;;;;;11.40;46.22;92483.59;4966920;28;20805;-79
2021/01/25 09:54:08;;;;;;;2.00;1.08;;;;;;;11.52;44.73;92481.00;4964286;28;20043;-78
2021/01/25 09:56:33;;;;;;;1.10;1.00;;;;;;;11.67;45.19;92483.03;4966293;28;20460;-78
2021/01/25 09:58:58;;;;;;;1.25;0.90;;;;;;;11.80;43.13;92491.03;4966613;28;20108;-78
2021/01/25 10:01:24;;;;;;;1.45;1.25;;;;;;;12.05;44.20;92479.41;4982210;28;20653;-78
2021/01/25 10:03:50;;;;;;;2.35;1.80;;;;;;;12.22;43.29;92481.81;4960834;28;20038;-79
2021/01/25 10:06:15;;;;;;;1.40;1.30;;;;;;;12.26;41.36;92479.31;4966597;28;20113;-78
2021/01/25 10:08:41;;;;;;;2.00;1.67;;;;;;;12.13;41.16;92478.50;4963186;28;20349;-79
2021/01/25 10:11:07;;;;;;;1.90;1.20;;;;;;;12.16;41.45;92488.47;4966149;28;20041;-78
2021/01/25 10:13:34;;;;;;;2.60;1.58;;;;;;;12.16;42.13;92504.34;4963768;28;20073;-79
2021/01/25 10:15:59;;;;;;;2.10;1.08;;;;;;;12.30;42.62;92515.41;4960985;28;20057;-78
2021/01/25 10:18:25;;;;;;;2.40;1.63;;;;;;;12.35;42.15;92501.94;4962175;28;20042;-78
2021/01/25 10:20:51;;;;;;;1.48;1.08;;;;;;;12.59;42.17;92517.06;4966879;28;20042;-79
2021/01/25 10:23:17;;;;;;;2.65;1.48;;;;;;;12.61;41.52;92506.91;4966727;28;20049;-78
2021/01/25 10:25:42;;;;;;;1.85;1.10;;;;;;;12.82;41.77;92501.47;4968244;28;20086;-79
2021/01/25 10:28:08;;;;;;;4.22;1.20;;;;;;;12.65;40.27;92499.84;4968787;28;20042;-80
2021/01/25 10:30:33;;;;;;;2.15;1.10;;;;;;;12.62;41.77;92495.19;4965172;28;20050;-81
2021/01/25 10:32:59;;;;;;;2.25;1.60;;;;;;;12.71;40.83;92503.03;4961169;28;20046;-78
2021/01/25 10:35:26;;;;;;;1.52;1.30;;;;;;;12.66;40.62;92508.59;4964483;28;20496;-77
2021/01/25 10:37:51;;;;;;;1.63;1.42;;;;;;;12.74;41.17;92508.47;4964874;28;20075;-77
2021/01/25 10:40:18;;;;;;;2.00;1.17;;;;;;;12.94;40.96;92506.78;4956876;28;20088;-79
2021/01/25 10:42:44;;;;;;;1.50;1.40;;;;;;;13.07;41.42;92500.34;4968212;28;20042;-76
2021/01/25 10:45:12;;;;;;;2.00;1.60;;;;;;;13.17;41.95;92507.09;4977372;28;20144;-77
2021/01/25 10:47:39;;;;;;;2.47;1.23;;;;;;;12.97;42.33;92495.50;4967956;28;20178;-76
2021/01/25 10:50:07;;;;;;;3.67;1.40;;;;;;;13.03;42.75;92491.53;4959958;28;20499;-76
2021/01/25 10:52:33;;;;;;;2.47;1.30;;;;;;;13.21;42.54;92492.06;4965319;28;20026;-76
2021/01/25 10:54:59;;;;;;;3.90;1.48;;;;;;;13.21;42.98;92500.78;4965923;28;20098;-76
2021/01/25 10:57:25;;;;;;;5.75;3.40;;;;;;;13.24;42.37;92494.78;4969162;28;20536;-77
2021/01/25 10:59:50;;;;;;;4.65;1.42;;;;;;;13.34;42.44;92494.31;4967839;28;20404;-76
2021/01/25 11:02:17;;;;;;;1.67;1.50;;;;;;;13.59;41.80;92494.25;4965690;28;20038;-76
2021/01/25 11:04:43;;;;;;;5.78;3.70;;;;;;;13.63;41.16;92497.78;4964266;28;20033;-76
2021/01/25 11:07:08;;;;;;;6.55;3.05;;;;;;;13.56;41.04;92505.53;4966667;28;20022;-76
2021/01/25 11:09:34;;;;;;;2.55;1.88;;;;;;;13.45;41.47;92492.75;4965355;28;20042;-76
2021/01/25 11:12:00;;;;;;;4.32;2.58;;;;;;;13.43;41.26;92495.00;4950893;28;20670;-76
2021/01/25 11:14:26;;;;;;;5.28;3.78;;;;;;;13.15;40.88;92483.56;4952863;28;20524;-76
2021/01/25 11:16:52;;;;;;;5.82;2.40;;;;;;;13.05;41.17;92459.38;4953845;28;20069;-76
2021/01/25 11:19:17;;;;;;;3.28;2.53;;;;;;;12.98;41.79;92489.09;4958468;28;20506;-76
2021/01/25 11:21:43;;;;;;;14.05;9.05;;;;;;;12.71;41.53;92501.16;4953230;28;20067;-76
2021/01/25 11:24:09;;;;;;;5.82;3.20;;;;;;;12.53;42.43;92499.84;4955301;28;20038;-76
2021/01/25 11:26:39;;;;;;;4.97;2.70;;;;;;;12.46;42.62;92503.03;4954450;28;20093;-77
2021/01/25 11:29:06;;;;;;;4.53;3.33;;;;;;;12.36;42.09;92492.91;4959496;28;20070;-77
2021/01/25 11:31:32;;;;;;;4.88;3.22;;;;;;;12.24;42.62;92494.75;4972281;28;20113;-77
2021/01/25 11:33:57;;;;;;;3.70;2.70;;;;;;;12.30;43.17;92504.81;4953650;28;20130;-76
2021/01/25 11:36:23;;;;;;;3.83;3.10;;;;;;;12.45;43.22;92504.16;4952359;28;20529;-77